createdAt,value
2023-07-14T06:02:48.280Z,59.20
2023-07-14T06:05:16.011Z,61.10
2023-07-14T06:07:43.485Z,58.82
2023-07-14T06:10:12.113Z,58.59
2023-07-14T06:12:39.306Z,57.43
2023-07-14T06:15:07.032Z,58.15
2023-07-14T06:17:33.689Z,57.16
2023-07-14T06:20:00.449Z,58.86
2023-07-14T06:22:27.171Z,57.89
2023-07-14T06:24:53.933Z,58.95
2023-07-14T06:27:24.173Z,57.47
2023-07-14T06:29:51.011Z,59.68
2023-07-14T06:32:17.758Z,57.33
2023-07-14T06:34:45.005Z,58.25
2023-07-14T06:37:11.659Z,55.60
2023-07-14T06:39:38.906Z,58.69
2023-07-14T06:42:06.382Z,57.51
2023-07-14T06:44:33.084Z,58.08
2023-07-14T06:46:59.794Z,56.14
2023-07-14T06:49:28.860Z,55.34
2023-07-14T06:51:56.574Z,56.01
2023-07-14T06:54:23.328Z,56.23
2023-07-14T06:56:50.093Z,55.16
2023-07-14T06:59:16.821Z,54.03
2023-07-14T07:01:43.524Z,53.62
2023-07-14T07:04:10.193Z,55.17
2023-07-14T07:06:37.029Z,55.04
2023-07-14T07:09:05.232Z,54.03
2023-07-14T07:11:34.159Z,53.82
2023-07-14T07:14:01.263Z,52.69
2023-07-14T07:16:27.963Z,52.36
2023-07-14T07:18:54.831Z,52.68
2023-07-14T07:21:21.519Z,53.07
2023-07-14T07:23:48.257Z,53.27
2023-07-14T07:26:15.804Z,53.43
2023-07-14T07:28:42.649Z,51.81
2023-07-14T07:31:12.292Z,51.62
2023-07-14T07:36:16.350Z,51.96
2023-07-14T07:38:46.326Z,51.70
2023-07-14T07:41:15.511Z,54.30
2023-07-14T07:43:42.948Z,51.56
2023-07-14T07:46:10.364Z,50.20
2023-07-14T07:48:37.508Z,52.16
2023-07-14T07:51:06.044Z,51.72
2023-07-14T07:53:33.864Z,51.16
2023-07-14T07:56:02.271Z,51.18
2023-07-14T07:58:30.000Z,50.16
2023-07-14T08:00:59.790Z,50.16
2023-07-14T08:03:27.532Z,48.03
2023-07-14T08:06:03.637Z,47.90
2023-07-14T08:08:30.950Z,46.38
2023-07-14T08:10:58.622Z,46.28
2023-07-14T08:13:30.245Z,45.42
2023-07-14T08:15:58.956Z,45.77
2023-07-14T08:18:27.168Z,46.54
2023-07-14T08:20:54.566Z,46.00
2023-07-14T08:23:23.328Z,45.91
2023-07-14T08:25:58.261Z,43.64
2023-07-14T08:28:28.252Z,44.90
2023-07-14T08:30:58.914Z,44.28
2023-07-14T08:33:26.413Z,43.86
2023-07-14T08:35:54.635Z,46.26
2023-07-14T08:38:22.856Z,46.18
2023-07-14T08:40:55.415Z,45.99
2023-07-14T08:43:28.559Z,44.03
2023-07-14T08:46:12.520Z,44.12
2023-07-14T08:48:47.109Z,44.18
2023-07-14T08:51:29.375Z,42.77
2023-07-14T08:54:03.859Z,42.65
2023-07-14T08:56:34.986Z,43.62
2023-07-14T08:59:02.585Z,41.80
2023-07-14T09:01:51.930Z,42.97
2023-07-14T09:04:25.624Z,43.75
2023-07-14T09:06:52.763Z,42.18
2023-07-14T09:09:34.707Z,42.55
2023-07-14T09:12:04.550Z,41.87
2023-07-14T09:15:00.828Z,43.14
2023-07-14T09:17:33.518Z,42.31
2023-07-14T09:20:46.121Z,42.39
2023-07-14T09:23:43.734Z,42.29
2023-07-14T09:26:20.726Z,41.73
2023-07-14T09:28:52.076Z,41.83
2023-07-14T09:31:57.576Z,41.99
2023-07-14T09:34:36.843Z,41.47
2023-07-14T09:37:16.938Z,40.59
2023-07-14T09:39:46.424Z,40.46
2023-07-14T09:42:27.370Z,40.46
2023-07-14T09:45:10.322Z,41.49
2023-07-14T09:47:37.668Z,43.83
2023-07-14T09:50:05.564Z,42.52
2023-07-14T09:52:32.238Z,43.45
2023-07-14T09:55:00.757Z,42.80
2023-07-14T09:57:39.645Z,42.85
2023-07-14T10:00:25.805Z,41.62
2023-07-14T10:03:04.133Z,40.49
2023-07-14T10:06:18.885Z,41.82
2023-07-14T10:08:56.757Z,42.22
2023-07-14T10:11:47.942Z,43.51
2023-07-14T10:14:36.384Z,43.87
2023-07-14T10:17:05.721Z,42.91
2023-07-14T10:19:40.255Z,44.27
2023-07-14T10:22:10.222Z,45.30
2023-07-14T10:24:38.748Z,45.65
2023-07-14T10:27:32.287Z,42.65
2023-07-14T10:29:58.941Z,45.32
2023-07-14T10:32:42.306Z,44.54
2023-07-14T10:35:18.270Z,45.27
2023-07-14T10:37:53.114Z,46.76
2023-07-14T10:40:24.171Z,46.95
2023-07-14T10:43:05.504Z,46.81
2023-07-14T10:45:35.429Z,46.78
2023-07-14T10:48:07.776Z,45.11
2023-07-14T10:50:42.697Z,44.45
2023-07-14T10:53:18.630Z,46.03
2023-07-14T10:55:47.272Z,46.91
2023-07-14T10:58:29.294Z,46.20
2023-07-14T11:01:02.524Z,47.14
2023-07-14T11:03:35.570Z,45.28
2023-07-14T11:06:31.685Z,46.27
2023-07-14T11:08:59.078Z,47.48
2023-07-14T11:11:54.350Z,46.06
2023-07-14T11:14:27.147Z,46.86
2023-07-14T11:17:03.718Z,45.97
2023-07-14T11:19:52.167Z,46.59
2023-07-14T11:22:43.307Z,47.16
2023-07-14T11:25:24.455Z,46.67
2023-07-14T11:27:58.315Z,46.29
2023-07-14T11:30:30.608Z,47.63
2023-07-14T11:33:06.245Z,47.57
2023-07-14T11:35:51.965Z,45.88
2023-07-14T11:38:40.170Z,46.91
2023-07-14T11:41:07.124Z,46.02
2023-07-14T11:43:34.822Z,46.62
2023-07-14T11:46:07.709Z,47.83
2023-07-14T11:48:41.366Z,48.69
2023-07-14T11:51:11.869Z,48.24
2023-07-14T11:53:41.880Z,49.78
2023-07-14T11:56:27.992Z,48.29
2023-07-14T11:59:13.662Z,48.75
2023-07-14T12:01:52.144Z,49.22
2023-07-14T12:04:57.877Z,49.81
2023-07-14T12:07:25.425Z,49.29
2023-07-14T12:10:01.010Z,48.21
2023-07-14T12:12:28.908Z,47.91
2023-07-14T12:14:55.578Z,47.89
2023-07-14T12:17:37.614Z,48.20
2023-07-14T12:20:17.726Z,47.51
2023-07-14T12:22:54.267Z,47.22
2023-07-14T12:25:25.474Z,47.02
2023-07-14T12:27:55.569Z,47.00
2023-07-14T12:30:24.575Z,47.99
2023-07-14T12:32:57.055Z,47.53
2023-07-14T12:35:27.853Z,47.78
2023-07-14T12:37:54.574Z,47.08
2023-07-14T12:40:25.377Z,47.63
2023-07-14T12:42:53.708Z,51.96
2023-07-14T12:45:21.854Z,50.00
2023-07-14T12:47:53.567Z,52.45
2023-07-14T12:50:26.084Z,50.30
2023-07-14T12:52:52.910Z,49.74
2023-07-14T12:55:25.423Z,49.39
2023-07-14T12:57:52.541Z,49.70
2023-07-14T13:00:26.900Z,50.07
2023-07-14T13:02:55.567Z,49.62
2023-07-14T13:05:27.348Z,49.75
2023-07-14T13:07:56.005Z,50.74
2023-07-14T13:10:28.017Z,50.14
2023-07-14T13:12:56.561Z,50.38
2023-07-14T13:15:28.837Z,50.18
2023-07-14T13:17:58.771Z,50.78
2023-07-14T13:20:37.510Z,50.88
2023-07-14T13:23:21.295Z,50.67
2023-07-14T13:26:06.276Z,52.19
2023-07-14T13:28:56.605Z,52.70
2023-07-14T13:31:33.840Z,53.46
2023-07-14T13:34:09.447Z,52.22
2023-07-14T13:36:36.901Z,51.86
2023-07-14T13:39:07.390Z,51.61
2023-07-14T13:41:34.320Z,51.10
2023-07-14T13:44:29.134Z,50.57
2023-07-14T13:46:56.417Z,51.06
2023-07-14T13:49:23.214Z,51.95
2023-07-14T13:51:50.032Z,50.35
2023-07-14T13:54:19.065Z,50.48
2023-07-14T13:56:47.767Z,49.08
2023-07-14T13:59:17.162Z,49.25
2023-07-14T14:01:44.556Z,50.07
2023-07-14T14:04:16.252Z,47.87
2023-07-14T14:06:45.293Z,48.33
2023-07-14T14:09:20.950Z,47.70
2023-07-14T14:11:51.975Z,47.97
2023-07-14T14:14:21.384Z,47.08
2023-07-14T14:16:50.138Z,47.46
2023-07-14T14:19:24.343Z,45.86
2023-07-14T14:22:00.474Z,45.15
2023-07-14T14:24:27.382Z,44.91
2023-07-14T14:26:55.227Z,44.83
2023-07-14T14:29:23.508Z,44.76
2023-07-14T14:31:50.203Z,43.16
2023-07-14T14:34:17.816Z,44.10
2023-07-14T14:36:44.523Z,43.65
2023-07-14T14:39:18.261Z,43.23
2023-07-14T14:41:46.485Z,43.32
2023-07-14T14:44:22.317Z,43.74
2023-07-14T14:46:49.390Z,44.63
2023-07-14T14:49:16.998Z,45.77
2023-07-14T14:51:44.360Z,46.35
2023-07-14T14:54:11.376Z,45.97
2023-07-14T14:56:42.271Z,44.43
2023-07-14T14:59:25.145Z,44.39
2023-07-14T15:01:52.021Z,44.13
2023-07-14T15:04:30.102Z,44.06
2023-07-14T15:06:57.026Z,44.75
2023-07-14T15:09:24.128Z,43.91
2023-07-14T15:11:54.651Z,45.82
2023-07-14T15:14:35.970Z,45.70
2023-07-14T15:17:16.176Z,45.75
2023-07-14T15:19:42.948Z,46.16
2023-07-14T15:22:21.837Z,45.90
2023-07-14T15:24:51.059Z,45.32
2023-07-14T15:27:28.672Z,45.06
2023-07-14T15:30:02.844Z,46.03
2023-07-14T15:32:29.977Z,45.50
2023-07-14T15:34:57.379Z,46.22
2023-07-14T15:37:24.091Z,44.96
2023-07-14T15:39:50.756Z,44.32
2023-07-14T15:42:17.519Z,46.63
2023-07-14T15:44:44.226Z,46.35
2023-07-14T15:47:16.303Z,45.84
2023-07-14T15:49:48.831Z,46.08
2023-07-14T15:52:19.055Z,45.16
2023-07-14T15:54:46.443Z,45.11
2023-07-14T15:57:16.189Z,45.52
2023-07-14T15:59:45.137Z,46.13
2023-07-14T16:02:16.471Z,47.37
2023-07-14T16:04:43.691Z,46.89
2023-07-14T16:07:14.881Z,47.05
2023-07-14T16:09:43.246Z,46.35
2023-07-14T16:12:19.073Z,46.55
2023-07-14T16:14:45.812Z,46.60
2023-07-14T16:17:12.535Z,46.25
2023-07-14T16:19:39.531Z,45.76
2023-07-14T16:22:07.456Z,47.49
2023-07-14T16:24:38.492Z,46.83
2023-07-14T16:27:24.381Z,48.08
2023-07-14T16:29:51.609Z,47.73
2023-07-14T16:32:18.592Z,46.79
2023-07-14T16:34:45.827Z,46.66
2023-07-14T16:37:21.919Z,47.21
2023-07-14T16:39:49.119Z,48.13
2023-07-14T16:42:19.784Z,47.98
2023-07-14T16:44:46.655Z,47.63
2023-07-14T16:47:14.419Z,47.07
2023-07-14T16:49:41.633Z,47.34
2023-07-14T16:52:27.870Z,48.03
2023-07-14T16:54:54.688Z,49.68
2023-07-14T16:57:31.131Z,49.40
2023-07-14T16:59:57.985Z,49.08
2023-07-14T17:02:26.941Z,49.42
2023-07-14T17:04:54.359Z,50.86
2023-07-14T17:07:21.839Z,49.56
2023-07-14T17:09:50.700Z,49.05
2023-07-14T17:12:17.991Z,48.51
2023-07-14T17:14:44.684Z,48.99
2023-07-14T17:17:15.181Z,50.13
2023-07-14T17:19:42.113Z,49.48
2023-07-14T17:22:12.346Z,49.25
2023-07-14T17:24:41.624Z,48.40
2023-07-14T17:27:15.928Z,48.41
2023-07-14T17:29:44.510Z,48.35
2023-07-14T17:32:11.918Z,49.34
2023-07-14T17:34:38.643Z,49.21
2023-07-14T17:37:07.640Z,49.27
2023-07-14T17:39:47.006Z,48.81
2023-07-14T17:42:20.593Z,48.95
2023-07-14T17:44:47.821Z,49.98
2023-07-14T17:47:14.656Z,49.35
2023-07-14T17:49:42.048Z,50.98
2023-07-14T17:52:18.700Z,50.15
2023-07-14T17:54:45.732Z,54.33
2023-07-14T17:57:18.316Z,55.45
2023-07-14T17:59:50.898Z,54.66
2023-07-14T18:02:37.644Z,52.38
2023-07-14T18:05:05.213Z,55.37
2023-07-14T18:07:33.442Z,52.24
2023-07-14T18:10:00.331Z,51.86
2023-07-14T18:12:29.295Z,51.85
2023-07-14T18:14:55.995Z,51.99
2023-07-14T18:17:23.251Z,51.31
2023-07-14T18:19:50.062Z,50.65
2023-07-14T18:22:27.946Z,50.64
2023-07-14T18:25:01.103Z,50.29
2023-07-14T18:27:30.701Z,50.66
2023-07-14T18:29:57.428Z,51.00
2023-07-14T18:32:24.308Z,51.20
2023-07-14T18:34:51.069Z,51.06
2023-07-14T18:37:17.811Z,51.89
2023-07-14T18:39:47.764Z,52.18
2023-07-14T18:42:19.650Z,53.94
2023-07-14T18:44:46.435Z,54.25
2023-07-14T18:47:14.634Z,56.08
2023-07-14T18:49:42.318Z,57.54
2023-07-14T18:52:16.011Z,59.08
2023-07-14T18:54:42.989Z,58.02
2023-07-14T18:57:20.598Z,59.33
2023-07-14T18:59:49.147Z,58.64
2023-07-14T19:02:27.910Z,59.16
2023-07-14T19:04:56.239Z,60.07
2023-07-14T19:07:23.866Z,60.76
2023-07-14T19:09:50.581Z,60.63
2023-07-14T19:12:26.272Z,60.99
2023-07-14T19:14:52.923Z,61.36
2023-07-14T19:17:20.644Z,61.60
2023-07-14T19:19:47.582Z,61.74
2023-07-14T19:22:16.784Z,61.55
2023-07-14T19:24:43.455Z,60.85
2023-07-14T19:27:14.886Z,61.63
2023-07-14T19:29:41.641Z,62.00
2023-07-14T19:32:16.716Z,59.30
2023-07-14T19:34:49.026Z,59.64
2023-07-14T19:37:16.086Z,61.60
2023-07-14T19:39:42.724Z,61.15
2023-07-14T19:42:17.974Z,61.40
2023-07-14T19:44:47.995Z,61.20
2023-07-14T19:47:20.236Z,59.75
2023-07-14T19:49:47.447Z,58.15
2023-07-14T19:52:15.164Z,58.60
2023-07-14T19:54:42.227Z,58.04
2023-07-14T19:57:16.724Z,57.13
2023-07-14T19:59:43.437Z,57.37
2023-07-14T20:02:27.063Z,56.34
2023-07-14T20:04:55.665Z,56.73
2023-07-14T20:07:22.824Z,56.40
2023-07-14T20:09:49.442Z,56.48
2023-07-14T20:12:18.512Z,56.46
2023-07-14T20:14:45.326Z,57.32
2023-07-14T20:17:13.393Z,55.88
2023-07-14T20:19:40.156Z,56.26
2023-07-14T20:22:19.349Z,55.88
2023-07-14T20:24:46.119Z,56.41
2023-07-14T20:27:19.620Z,55.80
2023-07-14T20:29:46.970Z,57.12
2023-07-14T20:32:15.099Z,55.70
2023-07-14T20:34:43.341Z,57.14
2023-07-14T20:37:17.573Z,55.11
2023-07-14T20:39:44.559Z,55.37
2023-07-14T20:42:16.404Z,55.17
2023-07-14T20:44:46.494Z,54.74
2023-07-14T20:47:17.183Z,54.82
2023-07-14T20:49:45.482Z,54.20
2023-07-14T20:52:23.144Z,54.22
2023-07-14T20:54:53.670Z,54.47
2023-07-14T20:57:20.859Z,54.40
2023-07-14T20:59:48.496Z,54.29
2023-07-14T21:02:25.154Z,54.43
2023-07-14T21:04:52.567Z,54.06
2023-07-14T21:07:20.478Z,54.23
2023-07-14T21:09:47.347Z,54.51
2023-07-14T21:12:26.954Z,53.96
2023-07-14T21:14:54.360Z,54.60
2023-07-14T21:17:24.751Z,54.18
2023-07-14T21:19:52.016Z,53.84
2023-07-14T21:22:21.475Z,53.72
2023-07-14T21:24:48.247Z,53.44
2023-07-14T21:27:18.084Z,53.53
2023-07-14T21:29:45.089Z,54.05
2023-07-14T21:32:27.992Z,53.59
2023-07-14T21:34:56.661Z,53.36
2023-07-14T21:37:24.373Z,52.98
2023-07-14T21:39:51.774Z,53.08
2023-07-14T21:42:19.196Z,54.79
2023-07-14T21:44:47.525Z,54.12
2023-07-14T21:47:15.551Z,53.27
2023-07-14T21:49:42.227Z,53.43
2023-07-14T21:52:14.007Z,53.12
2023-07-14T21:54:40.999Z,53.35
2023-07-14T21:57:17.431Z,53.48
2023-07-14T21:59:44.662Z,53.43
2023-07-14T22:02:16.797Z,52.96
2023-07-14T22:04:43.679Z,53.16
2023-07-14T22:07:12.446Z,53.06
2023-07-14T22:09:39.197Z,52.90
2023-07-14T22:12:16.872Z,53.07
2023-07-14T22:14:43.863Z,52.91
2023-07-14T22:17:14.019Z,52.77
2023-07-14T22:19:41.666Z,52.80
2023-07-14T22:22:10.144Z,53.13
2023-07-14T22:24:37.022Z,52.53
2023-07-14T22:27:03.947Z,52.80
2023-07-14T22:29:30.680Z,52.69
2023-07-14T22:31:58.357Z,52.57
2023-07-14T22:34:25.056Z,53.16
2023-07-14T22:36:51.801Z,52.27
2023-07-14T22:39:20.308Z,52.18
2023-07-14T22:41:49.708Z,52.64
2023-07-14T22:44:18.499Z,52.39
2023-07-14T22:46:46.877Z,52.48
2023-07-14T22:49:14.391Z,53.14
2023-07-14T22:51:45.510Z,53.07
2023-07-14T22:54:17.315Z,52.52
2023-07-14T22:56:44.181Z,52.74
2023-07-14T22:59:10.940Z,53.12
2023-07-14T23:01:37.699Z,53.45
2023-07-14T23:04:06.540Z,53.79
2023-07-14T23:06:34.008Z,53.81
2023-07-14T23:09:00.858Z,54.51
2023-07-14T23:11:32.499Z,54.53
2023-07-14T23:14:00.110Z,54.19
2023-07-14T23:16:27.033Z,54.35
2023-07-14T23:18:53.990Z,53.84
2023-07-14T23:21:30.413Z,53.26
2023-07-14T23:23:59.813Z,52.89
2023-07-14T23:26:29.710Z,52.81
2023-07-14T23:28:56.914Z,53.10
2023-07-14T23:31:33.359Z,53.39
2023-07-14T23:34:00.488Z,53.06
2023-07-14T23:36:27.711Z,53.35
2023-07-14T23:38:54.621Z,53.04
2023-07-14T23:41:25.540Z,52.77
2023-07-14T23:43:54.160Z,52.35
2023-07-14T23:46:25.498Z,52.90
2023-07-14T23:48:53.486Z,52.04
2023-07-14T23:51:34.456Z,52.33
2023-07-14T23:54:01.707Z,51.85
2023-07-14T23:56:29.468Z,51.99
2023-07-14T23:58:56.568Z,52.39
